Airfield :
LOGIN :

Register | Disclaimer

   EN    FR    IT 

 










Legend :    VFR   Marginal VFR   IFR   Intensive IFR   Very Intensive IFR
Visi :
Ceiling :
>= 8 km
>= 3000ft
5 to 8 km
1000 to 3000 ft
1500m to 5 km
500 to 1000 ft
800 to 1500m
200 to 500 ft
< 800m
< 200 ft
Symbols :   Thunderstorms  Fog  Heavy snow  Heavy precipitations  Wind > 20 kt
SIGMETs :     Misc.  Thunderstorms  Icing  Turbulence  Mountain Waves  Volcanic Ashes






- Airport Elevation : 16 ft
- IATA code : LPX


EVLA - Liepaja

CURRENT METAR :
  • 261520Z AUTO 13009KT 110V170 CAVOK 24/11 Q1023

EXPIRED METARs :
  • 261450Z AUTO 13009KT 100V170 CAVOK 26/11 Q1023
  • 261420Z AUTO 13009KT CAVOK 26/12 Q1023
  • 261350Z AUTO 13009KT 100V190 CAVOK 25/11 Q1023
  • 261320Z AUTO 11011KT CAVOK 25/11 Q1023
  • 261250Z AUTO 15010G20KT 090V190 CAVOK 26/11 Q1023
  • 261220Z AUTO 11010G20KT 080V150 CAVOK 26/12 Q1023
  • 261150Z AUTO 12009KT 090V150 CAVOK 25/12 Q1023
  • 261120Z AUTO 05004KT 010V100 9999 FEW046/// 25/16 Q1024
  • 261050Z AUTO 26004KT 220V300 9999 FEW050/// 22/16 Q1024

TAF TAF EVLA
Valid from the 26 at 15:00 until the 27 at 15:00 UTC


261403Z 2615/2715 15007KT CAVOK
TEMPO 2615/2618 TS SCT040CB
TEMPO 2710/2715 SCT040CB



MET'MAP, your aeronautical weather chart ! - Copyright ORBIFLY December 2007 - Disclaimer

ORBIFLY MET'MAP TEAM :

Programming & Development : Alexandra Zaïnal
Original concept : Baudouin d'Aumeries
Technical & hardware support : Manuel Goepfert
Assistance : Marc-Olivier Méhu




SOURCES & CREDITS :

   NOAA